Terminal Aerodrome Forecast
Issued by NWS

Home | Current Version | Previous Version | Text Only | Print | Product List | Glossary On
Versions: 1 2 3 4 5 6 7 8 9 10 11 12 13 14
000
FTUS45 KPSR 250500
TAFSDL
TAF
KSDL 250520Z 2506/2606 VRB04KT P6SM FEW250
     FM251600 17006KT P6SM SCT220
     FM252100 22012G20KT P6SM BKN220=

USA.gov is the U.S. government's official web portal to all federal, state and local government web resources and services.